createdAt,value
2019-04-30T00:00:55.836Z,13.80
2019-04-30T00:03:31.519Z,10.33
2019-04-30T00:05:59.028Z,15.67
2019-04-30T00:08:30.070Z,14.27
2019-04-30T00:10:56.029Z,15.87
2019-04-30T00:13:23.597Z,13.63
2019-04-30T00:15:52.821Z,13.53
2019-04-30T00:18:20.812Z,16.33
2019-04-30T00:20:48.429Z,12.83
2019-04-30T00:23:17.972Z,14.00
2019-04-30T00:25:46.061Z,13.07
2019-04-30T00:28:15.552Z,16.93
2019-04-30T00:30:43.881Z,17.10
2019-04-30T00:33:15.312Z,22.30
2019-04-30T00:35:42.480Z,18.97
2019-04-30T00:38:10.116Z,14.80
2019-04-30T00:40:37.847Z,17.30
2019-04-30T00:43:08.982Z,16.87
2019-04-30T00:45:35.387Z,14.43
2019-04-30T00:48:02.956Z,20.20
2019-04-30T00:50:33.942Z,17.73
2019-04-30T00:53:00.082Z,20.67
2019-04-30T00:55:27.621Z,22.00
2019-04-30T00:57:55.799Z,16.67
2019-04-30T01:00:28.141Z,17.80
2019-04-30T01:03:12.829Z,19.63
2019-04-30T01:05:44.504Z,18.67
2019-04-30T01:08:09.756Z,15.33
2019-04-30T01:10:37.641Z,17.37
2019-04-30T01:13:08.075Z,17.10
2019-04-30T01:15:34.849Z,16.67
2019-04-30T01:18:02.376Z,19.07
2019-04-30T01:20:32.658Z,18.93
2019-04-30T01:23:03.051Z,15.77
2019-04-30T01:25:29.135Z,17.00
2019-04-30T01:27:58.502Z,16.40
2019-04-30T01:30:25.972Z,18.00
2019-04-30T01:32:56.566Z,20.83
2019-04-30T01:35:23.800Z,20.27
2019-04-30T01:37:52.549Z,19.20
2019-04-30T01:40:20.003Z,21.60
2019-04-30T01:42:50.861Z,23.67
2019-04-30T01:45:18.770Z,22.40
2019-04-30T01:47:46.512Z,24.40
2019-04-30T01:50:14.252Z,26.70
2019-04-30T01:52:53.688Z,22.07
2019-04-30T01:55:49.446Z,24.50
2019-04-30T01:58:35.444Z,27.40
2019-04-30T02:01:09.017Z,25.50
2019-04-30T02:03:45.561Z,26.70
2019-04-30T02:06:12.996Z,26.70
2019-04-30T02:08:40.436Z,25.20
2019-04-30T02:11:09.015Z,24.93
2019-04-30T02:13:36.655Z,23.57
2019-04-30T02:16:04.111Z,25.57
2019-04-30T02:18:31.916Z,22.37
2019-04-30T02:20:59.613Z,25.77
2019-04-30T02:23:27.119Z,31.33
2019-04-30T02:25:54.553Z,29.23
2019-04-30T02:28:22.008Z,26.37
2019-04-30T02:30:50.374Z,25.17
2019-04-30T02:33:19.798Z,26.40
2019-04-30T02:36:10.084Z,24.80
2019-04-30T02:38:39.613Z,27.07
2019-04-30T02:41:09.858Z,27.47
2019-04-30T02:43:39.903Z,24.20
2019-04-30T02:46:09.641Z,27.30
2019-04-30T02:48:40.077Z,33.93
2019-04-30T02:51:10.495Z,27.10
2019-04-30T02:54:06.285Z,27.13
2019-04-30T02:56:33.806Z,29.13
2019-04-30T02:59:03.719Z,26.63
2019-04-30T03:01:30.830Z,30.40
2019-04-30T03:03:59.840Z,25.53
2019-04-30T03:06:29.736Z,30.60
2019-04-30T03:08:56.841Z,32.13
2019-04-30T03:11:24.293Z,30.53
2019-04-30T03:13:51.756Z,30.40
2019-04-30T03:16:23.824Z,25.27
2019-04-30T03:19:09.930Z,25.63
2019-04-30T03:21:51.006Z,29.10
2019-04-30T03:24:20.138Z,28.10
2019-04-30T03:26:50.263Z,26.37
2019-04-30T03:29:23.345Z,27.97
2019-04-30T03:31:46.965Z,27.10
2019-04-30T03:34:23.260Z,27.77
2019-04-30T03:36:43.670Z,25.50
2019-04-30T03:39:13.897Z,23.03
2019-04-30T03:41:41.810Z,19.83
2019-04-30T03:44:20.912Z,22.50
2019-04-30T03:46:40.039Z,22.50
2019-04-30T03:49:10.584Z,19.80
2019-04-30T03:51:40.006Z,27.40
2019-04-30T03:54:06.486Z,23.63
2019-04-30T03:56:33.913Z,24.50
2019-04-30T03:59:01.747Z,27.23
2019-04-30T04:01:54.977Z,25.40
2019-04-30T04:04:30.964Z,23.67
2019-04-30T04:07:11.372Z,20.93
2019-04-30T04:09:44.217Z,20.37
2019-04-30T04:12:21.237Z,19.20
2019-04-30T04:14:50.922Z,20.37
2019-04-30T04:17:20.257Z,24.27
2019-04-30T04:19:51.014Z,24.27
2019-04-30T04:22:20.541Z,20.63
2019-04-30T04:24:50.390Z,26.63
2019-04-30T04:27:19.358Z,21.23
2019-04-30T04:29:47.078Z,21.97
2019-04-30T04:32:14.507Z,20.90
2019-04-30T04:34:44.904Z,20.17
2019-04-30T04:37:11.219Z,18.87
2019-04-30T04:39:38.968Z,21.47
2019-04-30T04:42:10.149Z,22.07
2019-04-30T04:44:39.335Z,23.20
2019-04-30T04:47:06.424Z,20.20
2019-04-30T04:49:33.873Z,18.40
2019-04-30T04:52:01.313Z,18.20
2019-04-30T04:54:29.999Z,22.83
2019-04-30T04:57:11.001Z,22.07
2019-04-30T04:59:29.569Z,26.83
2019-04-30T05:01:56.260Z,23.77
2019-04-30T05:04:24.088Z,23.93
2019-04-30T05:06:51.540Z,23.47
2019-04-30T05:09:21.032Z,23.93
2019-04-30T05:11:59.141Z,25.43
2019-04-30T05:14:28.690Z,29.43
2019-04-30T05:16:55.884Z,29.47
2019-04-30T05:19:23.669Z,25.20
2019-04-30T05:21:51.745Z,25.20
2019-04-30T05:24:19.248Z,27.27
2019-04-30T05:26:48.598Z,29.00
2019-04-30T05:29:15.939Z,29.17
2019-04-30T05:31:43.376Z,31.20
2019-04-30T05:34:10.799Z,32.90
2019-04-30T05:36:39.139Z,29.30
2019-04-30T05:39:08.275Z,30.43
2019-04-30T05:41:35.965Z,31.10
2019-04-30T05:44:03.427Z,26.53
2019-04-30T05:46:30.870Z,26.07
2019-04-30T05:48:59.422Z,33.50
2019-04-30T05:51:28.767Z,27.50
2019-04-30T05:53:56.348Z,26.93
2019-04-30T05:56:23.847Z,27.73
2019-04-30T05:58:51.267Z,31.83
2019-04-30T06:01:19.598Z,29.97
2019-04-30T06:03:48.393Z,30.00
2019-04-30T06:06:16.155Z,33.50
2019-04-30T06:08:50.704Z,30.57
2019-04-30T06:11:39.253Z,32.17
2019-04-30T06:14:24.563Z,27.73
2019-04-30T06:17:26.508Z,37.03
2019-04-30T06:19:55.691Z,30.07
2019-04-30T06:22:24.060Z,34.77
2019-04-30T06:24:51.568Z,28.37
2019-04-30T06:27:19.335Z,31.33
2019-04-30T06:29:48.956Z,34.43
2019-04-30T06:32:18.479Z,36.13
2019-04-30T06:34:46.839Z,34.60
2019-04-30T06:37:14.555Z,32.67
2019-04-30T06:39:42.074Z,35.97
2019-04-30T06:42:12.779Z,32.30
2019-04-30T06:44:41.892Z,58.23
2019-04-30T06:47:15.362Z,33.70
2019-04-30T06:49:43.244Z,32.47
2019-04-30T06:52:20.328Z,37.20
2019-04-30T06:54:40.718Z,27.93
2019-04-30T06:57:09.672Z,29.73
2019-04-30T06:59:39.562Z,30.47
2019-04-30T07:02:09.131Z,30.53
2019-04-30T07:04:36.823Z,34.77
2019-04-30T07:07:04.307Z,34.77
2019-04-30T07:09:58.224Z,31.00
2019-04-30T07:12:34.189Z,28.43
2019-04-30T07:15:01.838Z,31.43
2019-04-30T07:17:29.387Z,32.00
2019-04-30T07:19:57.065Z,31.50
2019-04-30T07:22:39.096Z,32.90
2019-04-30T07:24:54.170Z,35.53
2019-04-30T07:27:24.119Z,34.83
2019-04-30T07:29:50.986Z,33.50
2019-04-30T07:32:24.752Z,29.23
2019-04-30T07:34:52.272Z,33.00
2019-04-30T07:37:24.248Z,29.87
2019-04-30T07:39:51.284Z,29.60
2019-04-30T07:42:19.339Z,31.60
2019-04-30T07:44:46.956Z,29.53
2019-04-30T07:47:14.521Z,24.83
2019-04-30T07:49:51.552Z,32.70
2019-04-30T07:52:14.060Z,26.90
2019-04-30T07:54:41.974Z,29.50
2019-04-30T07:57:09.619Z,29.30
2019-04-30T07:59:37.112Z,30.97
2019-04-30T08:02:12.265Z,27.43
2019-04-30T08:05:05.440Z,31.07
2019-04-30T08:07:32.979Z,27.73
2019-04-30T08:10:00.405Z,32.87
2019-04-30T08:12:31.941Z,29.67
2019-04-30T08:14:59.505Z,33.30
2019-04-30T08:17:28.861Z,28.60
2019-04-30T08:19:58.628Z,30.00
2019-04-30T08:22:26.121Z,32.90
2019-04-30T08:24:53.660Z,37.53
2019-04-30T08:27:22.225Z,30.30
2019-04-30T08:29:50.104Z,30.27
2019-04-30T08:32:19.078Z,31.40
2019-04-30T08:34:47.080Z,31.90
2019-04-30T08:37:19.608Z,37.13
2019-04-30T08:39:46.364Z,33.30
2019-04-30T08:42:13.933Z,28.67
2019-04-30T08:44:41.492Z,29.40
2019-04-30T08:47:08.939Z,30.47
2019-04-30T08:49:36.639Z,31.27
2019-04-30T08:52:04.695Z,34.20
2019-04-30T08:54:34.597Z,31.20
2019-04-30T08:57:01.648Z,35.63
2019-04-30T08:59:29.569Z,29.70
2019-04-30T09:01:58.750Z,27.40
2019-04-30T09:04:29.189Z,33.43
2019-04-30T09:06:56.636Z,30.77
2019-04-30T09:09:24.088Z,29.57
2019-04-30T09:11:55.409Z,27.03
2019-04-30T09:14:20.813Z,28.10
2019-04-30T09:16:49.551Z,44.30
2019-04-30T09:19:21.024Z,40.47
2019-04-30T09:21:48.758Z,28.67
2019-04-30T09:24:16.084Z,37.63
2019-04-30T09:26:43.532Z,34.33
2019-04-30T09:29:10.968Z,35.33
2019-04-30T09:31:40.803Z,40.90
2019-04-30T09:34:15.228Z,29.60
2019-04-30T09:36:39.171Z,37.50
2019-04-30T09:39:08.997Z,30.07
2019-04-30T09:41:36.586Z,33.87
2019-04-30T09:44:05.117Z,32.57
2019-04-30T09:46:32.937Z,45.50
2019-04-30T09:49:09.634Z,36.03
2019-04-30T09:51:39.080Z,34.63
2019-04-30T09:54:06.905Z,36.83
2019-04-30T09:56:35.709Z,32.50
2019-04-30T09:59:03.346Z,37.60
2019-04-30T10:01:33.362Z,36.50
2019-04-30T10:04:01.634Z,32.17
2019-04-30T10:06:39.082Z,33.17
2019-04-30T10:08:59.813Z,33.20
2019-04-30T10:11:44.295Z,30.60
2019-04-30T10:14:11.771Z,33.93
2019-04-30T10:16:49.476Z,30.50
2019-04-30T10:19:17.006Z,30.43
2019-04-30T10:21:44.501Z,29.13
2019-04-30T10:24:15.437Z,31.53
2019-04-30T10:26:41.364Z,30.57
2019-04-30T10:29:08.898Z,32.53
2019-04-30T10:31:36.511Z,33.47
2019-04-30T10:34:04.112Z,33.30
2019-04-30T10:36:31.624Z,35.87
2019-04-30T10:38:59.580Z,30.03
2019-04-30T10:41:28.816Z,34.13
2019-04-30T10:43:56.581Z,32.60
2019-04-30T10:46:25.108Z,31.43
2019-04-30T10:48:52.933Z,35.87
2019-04-30T10:51:20.507Z,30.77
2019-04-30T10:53:48.585Z,29.17
2019-04-30T10:56:19.194Z,28.90
2019-04-30T10:58:46.696Z,31.03
2019-04-30T11:01:14.192Z,30.50
2019-04-30T11:03:42.989Z,36.53
2019-04-30T11:06:10.468Z,29.90
2019-04-30T11:08:37.952Z,28.90
2019-04-30T11:11:05.620Z,28.63
2019-04-30T11:13:33.184Z,29.60
2019-04-30T11:16:12.079Z,31.40
2019-04-30T11:18:30.106Z,30.33
2019-04-30T11:20:59.658Z,32.47
2019-04-30T11:23:29.377Z,31.97
2019-04-30T11:25:57.152Z,26.80
2019-04-30T11:28:26.056Z,27.00
2019-04-30T11:31:06.179Z,34.50
2019-04-30T11:33:34.325Z,30.33
2019-04-30T11:36:04.937Z,29.70
2019-04-30T11:38:31.457Z,25.03
2019-04-30T11:40:59.088Z,28.63
2019-04-30T11:43:26.697Z,28.40
2019-04-30T11:46:35.143Z,27.20
2019-04-30T11:49:02.762Z,25.20
2019-04-30T11:51:30.219Z,29.10
2019-04-30T11:53:59.357Z,26.27
2019-04-30T11:56:27.005Z,26.67
2019-04-30T11:58:54.448Z,26.23
2019-04-30T12:01:27.083Z,25.93
2019-04-30T12:03:54.644Z,25.90
2019-04-30T12:06:22.307Z,24.57
2019-04-30T12:09:14.173Z,25.43
2019-04-30T12:11:41.766Z,24.50
2019-04-30T12:14:11.362Z,27.27
2019-04-30T12:16:39.596Z,25.83
2019-04-30T12:19:09.069Z,27.40
2019-04-30T12:21:36.810Z,27.50
2019-04-30T12:24:04.304Z,27.70
2019-04-30T12:26:32.070Z,25.80
2019-04-30T12:28:59.587Z,22.40
2019-04-30T12:31:27.137Z,22.97
2019-04-30T12:33:54.743Z,22.53
2019-04-30T12:36:22.480Z,21.53
2019-04-30T12:38:50.157Z,23.40
2019-04-30T12:41:17.639Z,22.00
2019-04-30T12:43:45.223Z,20.27
2019-04-30T12:46:13.071Z,20.40
2019-04-30T12:48:59.613Z,24.67
2019-04-30T12:51:45.269Z,21.37
2019-04-30T12:54:13.618Z,22.17
2019-04-30T12:57:00.741Z,19.30
2019-04-30T12:59:28.240Z,23.10
2019-04-30T13:01:55.777Z,18.20
2019-04-30T13:04:29.207Z,21.10
2019-04-30T13:07:01.610Z,19.60
2019-04-30T13:09:31.989Z,19.80
2019-04-30T13:12:02.561Z,22.37
2019-04-30T13:14:31.490Z,17.60
2019-04-30T13:16:59.478Z,20.50
2019-04-30T13:19:29.695Z,17.47
2019-04-30T13:21:58.666Z,18.53
2019-04-30T13:24:26.577Z,18.47
2019-04-30T13:26:54.062Z,19.97
2019-04-30T13:29:32.338Z,21.40
2019-04-30T13:31:59.888Z,16.83
2019-04-30T13:34:44.590Z,18.57
2019-04-30T13:37:12.053Z,20.07
2019-04-30T13:39:50.663Z,24.43
2019-04-30T13:42:29.345Z,24.70
2019-04-30T13:44:56.956Z,18.23
2019-04-30T13:47:24.448Z,18.40
2019-04-30T13:49:52.060Z,20.27
2019-04-30T13:52:19.559Z,20.13
2019-04-30T13:54:47.024Z,21.03
2019-04-30T13:57:15.664Z,16.73
2019-04-30T13:59:43.224Z,20.50
2019-04-30T14:02:10.970Z,15.37
2019-04-30T14:04:50.082Z,16.20
2019-04-30T14:07:35.644Z,14.23
2019-04-30T14:10:03.612Z,13.87
2019-04-30T14:12:32.912Z,13.80
2019-04-30T14:15:02.230Z,12.60
2019-04-30T14:17:29.906Z,13.40
2019-04-30T14:19:57.779Z,12.87
2019-04-30T14:22:25.281Z,12.47
2019-04-30T14:24:52.819Z,16.80
2019-04-30T14:27:20.353Z,12.27
2019-04-30T14:29:49.516Z,13.33
2019-04-30T14:32:18.571Z,12.17
2019-04-30T14:34:46.153Z,12.23
2019-04-30T14:37:13.695Z,11.30
2019-04-30T14:39:41.569Z,17.13
2019-04-30T14:42:12.768Z,11.90
2019-04-30T14:44:41.136Z,17.17
2019-04-30T14:47:35.619Z,14.43
2019-04-30T14:50:13.585Z,10.63
2019-04-30T14:52:55.300Z,10.90
2019-04-30T14:55:49.544Z,9.47
2019-04-30T14:58:39.778Z,11.60
2019-04-30T15:01:19.714Z,10.63
2019-04-30T15:03:49.392Z,9.80
2019-04-30T15:06:16.709Z,9.73
2019-04-30T15:08:44.274Z,11.70
2019-04-30T15:11:12.455Z,11.80
2019-04-30T15:13:40.137Z,13.27
2019-04-30T15:16:07.749Z,10.33
2019-04-30T15:18:35.408Z,9.70
2019-04-30T15:21:03.547Z,11.00
2019-04-30T15:23:58.880Z,10.10
2019-04-30T15:26:24.557Z,8.40
2019-04-30T15:28:49.187Z,11.90
2019-04-30T15:31:18.441Z,10.10
2019-04-30T15:34:02.244Z,9.63
2019-04-30T15:36:20.618Z,12.40
2019-04-30T15:39:02.339Z,11.80
2019-04-30T15:41:30.376Z,9.00
2019-04-30T15:43:57.943Z,11.03
2019-04-30T15:46:25.432Z,11.47
2019-04-30T15:48:53.224Z,12.17
2019-04-30T15:51:20.657Z,22.13
2019-04-30T15:53:51.129Z,19.20
2019-04-30T15:56:19.259Z,17.30
2019-04-30T15:59:06.432Z,16.30
2019-04-30T16:01:33.860Z,14.40
2019-04-30T16:04:01.616Z,10.37
2019-04-30T16:06:29.088Z,10.17
2019-04-30T16:08:58.618Z,10.03
2019-04-30T16:11:41.832Z,9.00
2019-04-30T16:14:20.976Z,9.27
2019-04-30T16:16:59.463Z,10.20
2019-04-30T16:19:28.719Z,7.70
2019-04-30T16:21:56.184Z,8.27
2019-04-30T16:24:23.690Z,9.90
2019-04-30T16:26:52.798Z,9.83
2019-04-30T16:29:20.429Z,10.90
2019-04-30T16:31:49.412Z,7.60
2019-04-30T16:34:17.082Z,9.40
2019-04-30T16:36:44.532Z,8.83
2019-04-30T16:39:12.500Z,8.50
2019-04-30T16:41:40.792Z,8.60
2019-04-30T16:44:10.027Z,9.87
2019-04-30T16:46:39.441Z,9.10
2019-04-30T16:49:07.102Z,10.17
2019-04-30T16:51:35.934Z,8.63
2019-04-30T16:54:04.782Z,9.63
2019-04-30T16:56:32.344Z,8.60
2019-04-30T16:59:01.751Z,9.17
2019-04-30T17:01:30.029Z,17.07
2019-04-30T17:04:03.981Z,13.10
2019-04-30T17:06:33.185Z,15.30
2019-04-30T17:09:10.165Z,17.00
2019-04-30T17:12:04.397Z,19.90
2019-04-30T17:14:32.828Z,18.47
2019-04-30T17:17:00.330Z,16.90
2019-04-30T17:19:29.209Z,17.37
2019-04-30T17:21:56.775Z,17.33
2019-04-30T17:24:24.327Z,17.73
2019-04-30T17:26:51.997Z,18.57
2019-04-30T17:29:19.579Z,18.20
2019-04-30T17:31:47.148Z,19.20
2019-04-30T17:34:14.822Z,17.23
2019-04-30T17:36:42.406Z,20.30
2019-04-30T17:39:14.700Z,22.80
2019-04-30T17:41:42.309Z,19.13
2019-04-30T17:44:11.338Z,14.00
2019-04-30T17:46:38.897Z,16.63
2019-04-30T17:49:06.400Z,19.53
2019-04-30T17:51:33.847Z,16.83
2019-04-30T17:54:13.561Z,21.13
2019-04-30T17:56:42.016Z,20.00
2019-04-30T17:59:09.811Z,18.70
2019-04-30T18:01:39.963Z,18.70
2019-04-30T18:04:08.779Z,20.90
2019-04-30T18:06:36.362Z,18.63
2019-04-30T18:09:06.416Z,17.80
2019-04-30T18:11:33.944Z,18.27
2019-04-30T18:14:01.404Z,16.17
2019-04-30T18:16:29.029Z,20.10
2019-04-30T18:19:06.178Z,19.67
2019-04-30T18:21:40.429Z,21.80
2019-04-30T18:24:30.420Z,17.83
2019-04-30T18:27:02.350Z,18.00
2019-04-30T18:29:29.926Z,21.33
2019-04-30T18:31:59.845Z,20.40
2019-04-30T18:34:29.130Z,21.40
2019-04-30T18:36:56.475Z,19.50
2019-04-30T18:39:23.979Z,23.77
2019-04-30T18:41:51.509Z,22.60
2019-04-30T18:44:22.312Z,22.43
2019-04-30T18:46:49.879Z,19.60
2019-04-30T18:49:18.776Z,21.37
2019-04-30T18:51:46.532Z,22.70
2019-04-30T18:54:14.355Z,19.53
2019-04-30T18:56:41.954Z,19.53
2019-04-30T18:59:10.453Z,21.90
2019-04-30T19:01:40.968Z,21.30
2019-04-30T19:04:09.178Z,21.30
2019-04-30T19:06:39.730Z,19.50
2019-04-30T19:09:29.687Z,20.37
2019-04-30T19:12:11.421Z,22.80
2019-04-30T19:15:00.804Z,21.70
2019-04-30T19:17:49.446Z,19.27
2019-04-30T19:20:30.463Z,20.97
2019-04-30T19:22:57.955Z,22.97
2019-04-30T19:25:28.885Z,19.33
2019-04-30T19:28:09.069Z,22.47
2019-04-30T19:30:29.275Z,21.87
2019-04-30T19:33:01.090Z,23.13
2019-04-30T19:35:28.707Z,22.27
2019-04-30T19:37:56.475Z,23.80
2019-04-30T19:40:26.240Z,24.80
2019-04-30T19:42:53.771Z,23.10
2019-04-30T19:45:26.136Z,21.30
2019-04-30T19:47:58.722Z,19.83
2019-04-30T19:50:29.298Z,25.90
2019-04-30T19:52:58.635Z,22.20
2019-04-30T19:55:26.225Z,27.93
2019-04-30T19:57:54.000Z,25.83
2019-04-30T20:00:21.992Z,20.23
2019-04-30T20:02:49.523Z,21.50
2019-04-30T20:05:16.957Z,20.80
2019-04-30T20:07:44.921Z,25.13
2019-04-30T20:10:13.480Z,23.77
2019-04-30T20:12:40.924Z,20.90
2019-04-30T20:15:17.275Z,20.53
2019-04-30T20:17:38.558Z,21.03
2019-04-30T20:20:08.994Z,25.47
2019-04-30T20:22:36.616Z,24.70
2019-04-30T20:25:04.416Z,21.37
2019-04-30T20:27:31.844Z,26.87
2019-04-30T20:29:59.395Z,23.70
2019-04-30T20:32:35.383Z,22.37
2019-04-30T20:34:56.946Z,24.07
2019-04-30T20:37:24.683Z,22.10
2019-04-30T20:40:02.895Z,28.27
2019-04-30T20:42:30.712Z,24.57
2019-04-30T20:44:58.868Z,28.30
2019-04-30T20:47:26.509Z,22.27
2019-04-30T20:49:53.968Z,24.17
2019-04-30T20:52:32.374Z,23.37
2019-04-30T20:55:00.209Z,27.27
2019-04-30T20:57:29.445Z,21.80
2019-04-30T20:59:56.903Z,24.60
2019-04-30T21:02:24.342Z,26.80
2019-04-30T21:04:52.229Z,22.67
2019-04-30T21:07:19.787Z,21.30
2019-04-30T21:09:47.260Z,24.30
2019-04-30T21:12:15.049Z,26.60
2019-04-30T21:14:42.520Z,27.20
2019-04-30T21:17:09.973Z,26.53
2019-04-30T21:19:37.424Z,22.10
2019-04-30T21:22:05.473Z,21.70
2019-04-30T21:24:38.829Z,23.73
2019-04-30T21:27:07.626Z,19.37
2019-04-30T21:29:36.692Z,22.53
2019-04-30T21:32:28.680Z,24.10
2019-04-30T21:35:16.961Z,25.97
2019-04-30T21:37:45.542Z,25.77
2019-04-30T21:40:13.796Z,23.73
2019-04-30T21:42:42.298Z,21.90
2019-04-30T21:45:10.576Z,26.07
2019-04-30T21:47:38.396Z,20.37
2019-04-30T21:50:06.317Z,24.03
2019-04-30T21:52:35.553Z,20.80
2019-04-30T21:55:03.243Z,23.60
2019-04-30T21:57:30.657Z,21.93
2019-04-30T21:59:58.792Z,23.43
2019-04-30T22:02:26.564Z,22.93
2019-04-30T22:04:54.044Z,25.17
2019-04-30T22:07:21.468Z,26.30
2019-04-30T22:09:51.015Z,25.90
2019-04-30T22:12:19.152Z,28.33
2019-04-30T22:14:46.825Z,28.07
2019-04-30T22:17:14.364Z,29.30
2019-04-30T22:19:41.812Z,29.73
2019-04-30T22:22:09.473Z,32.17
2019-04-30T22:24:38.853Z,27.43
2019-04-30T22:27:06.234Z,25.87
2019-04-30T22:29:39.256Z,20.97
2019-04-30T22:32:02.968Z,23.67
2019-04-30T22:34:30.728Z,25.03
2019-04-30T22:36:58.610Z,23.07
2019-04-30T22:39:31.128Z,25.00
2019-04-30T22:42:29.799Z,23.10
2019-04-30T22:44:58.436Z,20.53
2019-04-30T22:47:26.061Z,25.03
2019-04-30T22:49:53.559Z,19.70
2019-04-30T22:52:21.908Z,23.87
2019-04-30T22:54:49.565Z,25.33
2019-04-30T22:57:17.032Z,23.00
2019-04-30T22:59:56.273Z,19.07
2019-04-30T23:02:52.520Z,21.97
2019-04-30T23:05:20.246Z,26.07
2019-04-30T23:07:47.724Z,19.77
2019-04-30T23:10:16.204Z,23.43
2019-04-30T23:12:43.674Z,26.50
2019-04-30T23:15:12.376Z,25.50
2019-04-30T23:17:39.976Z,30.87
2019-04-30T23:20:08.213Z,25.50
2019-04-30T23:22:36.671Z,27.87
2019-04-30T23:25:04.432Z,20.30
2019-04-30T23:27:33.457Z,23.67
2019-04-30T23:30:03.617Z,23.43
2019-04-30T23:32:30.607Z,20.40
2019-04-30T23:34:58.464Z,24.27
2019-04-30T23:37:25.971Z,27.67
2019-04-30T23:39:53.481Z,42.83
2019-04-30T23:42:20.969Z,47.27
2019-04-30T23:44:48.400Z,24.93
2019-04-30T23:47:15.839Z,18.77
2019-04-30T23:49:43.264Z,21.27
2019-04-30T23:52:10.736Z,22.83
2019-04-30T23:54:38.168Z,24.97
2019-04-30T23:57:05.620Z,23.47
2019-04-30T23:59:33.039Z,23.43
